sensor_id;sensor_type;location;lat;lon;timestamp;pressure;altitude;pressure_sealevel;temperature;humidity
21753;BME280;11038;50.940;20.564;2022-07-06T00:01:29;97843.69;;;15.61;100.00
21753;BME280;11038;50.940;20.564;2022-07-06T00:03:01;97855.69;;;15.58;100.00
21753;BME280;11038;50.940;20.564;2022-07-06T00:04:34;97856.69;;;15.51;100.00
21753;BME280;11038;50.940;20.564;2022-07-06T00:06:06;97855.06;;;15.56;100.00
21753;BME280;11038;50.940;20.564;2022-07-06T00:07:39;97851.53;;;15.56;100.00
21753;BME280;11038;50.940;20.564;2022-07-06T00:09:11;97858.16;;;15.53;100.00
21753;BME280;11038;50.940;20.564;2022-07-06T00:10:43;97850.84;;;15.47;100.00
21753;BME280;11038;50.940;20.564;2022-07-06T00:12:16;97854.41;;;15.47;100.00
21753;BME280;11038;50.940;20.564;2022-07-06T00:13:48;97852.13;;;15.51;100.00
21753;BME280;11038;50.940;20.564;2022-07-06T00:15:20;97850.63;;;15.42;100.00
21753;BME280;11038;50.940;20.564;2022-07-06T00:16:53;97853.94;;;15.44;100.00
21753;BME280;11038;50.940;20.564;2022-07-06T00:18:25;97851.06;;;15.45;100.00
21753;BME280;11038;50.940;20.564;2022-07-06T00:19:58;97855.19;;;15.41;100.00
21753;BME280;11038;50.940;20.564;2022-07-06T00:21:31;97848.97;;;15.41;100.00
21753;BME280;11038;50.940;20.564;2022-07-06T00:23:03;97854.34;;;15.41;100.00
21753;BME280;11038;50.940;20.564;2022-07-06T00:24:35;97852.69;;;15.40;100.00
21753;BME280;11038;50.940;20.564;2022-07-06T00:26:08;97852.69;;;15.40;100.00
21753;BME280;11038;50.940;20.564;2022-07-06T00:27:40;97852.47;;;15.41;100.00
21753;BME280;11038;50.940;20.564;2022-07-06T00:29:12;97856.81;;;15.35;100.00
21753;BME280;11038;50.940;20.564;2022-07-06T00:30:45;97855.56;;;15.38;100.00
21753;BME280;11038;50.940;20.564;2022-07-06T00:32:17;97847.25;;;15.33;100.00
21753;BME280;11038;50.940;20.564;2022-07-06T00:33:50;97852.81;;;15.24;100.00
21753;BME280;11038;50.940;20.564;2022-07-06T00:35:22;97849.03;;;15.19;100.00
21753;BME280;11038;50.940;20.564;2022-07-06T00:36:54;97842.25;;;15.23;100.00
21753;BME280;11038;50.940;20.564;2022-07-06T00:38:27;97852.56;;;15.19;100.00
21753;BME280;11038;50.940;20.564;2022-07-06T00:39:59;97857.53;;;15.15;100.00
21753;BME280;11038;50.940;20.564;2022-07-06T00:41:31;97848.03;;;15.20;100.00
21753;BME280;11038;50.940;20.564;2022-07-06T00:43:03;97857.09;;;15.12;100.00
21753;BME280;11038;50.940;20.564;2022-07-06T00:44:36;97858.31;;;15.09;100.00
21753;BME280;11038;50.940;20.564;2022-07-06T00:46:09;97852.94;;;15.09;100.00
21753;BME280;11038;50.940;20.564;2022-07-06T00:47:41;97860.63;;;15.12;100.00
21753;BME280;11038;50.940;20.564;2022-07-06T00:49:15;97850.88;;;15.11;100.00
21753;BME280;11038;50.940;20.564;2022-07-06T00:51:06;97858.94;;;15.11;100.00
21753;BME280;11038;50.940;20.564;2022-07-06T00:52:38;97853.81;;;15.16;100.00
21753;BME280;11038;50.940;20.564;2022-07-06T00:54:10;97848.88;;;15.20;100.00
21753;BME280;11038;50.940;20.564;2022-07-06T00:55:43;97855.88;;;15.21;100.00
21753;BME280;11038;50.940;20.564;2022-07-06T00:57:15;97848.00;;;15.13;100.00
21753;BME280;11038;50.940;20.564;2022-07-06T00:58:47;97849.19;;;15.10;100.00
21753;BME280;11038;50.940;20.564;2022-07-06T01:00:23;97853.38;;;15.13;100.00
21753;BME280;11038;50.940;20.564;2022-07-06T01:01:56;97853.19;;;15.14;100.00
21753;BME280;11038;50.940;20.564;2022-07-06T01:03:28;97855.25;;;15.12;100.00
21753;BME280;11038;50.940;20.564;2022-07-06T01:05:03;97854.19;;;15.13;100.00
21753;BME280;11038;50.940;20.564;2022-07-06T01:06:36;97851.88;;;15.10;100.00
21753;BME280;11038;50.940;20.564;2022-07-06T01:08:08;97855.88;;;15.14;100.00
21753;BME280;11038;50.940;20.564;2022-07-06T01:09:41;97846.72;;;15.09;100.00
21753;BME280;11038;50.940;20.564;2022-07-06T01:11:15;97844.66;;;15.11;100.00
21753;BME280;11038;50.940;20.564;2022-07-06T01:12:48;97847.91;;;14.99;100.00
21753;BME280;11038;50.940;20.564;2022-07-06T01:14:20;97840.88;;;14.98;100.00
21753;BME280;11038;50.940;20.564;2022-07-06T01:15:53;97842.94;;;15.03;100.00
21753;BME280;11038;50.940;20.564;2022-07-06T01:17:25;97840.47;;;15.01;100.00
21753;BME280;11038;50.940;20.564;2022-07-06T01:18:58;97846.28;;;15.05;100.00
21753;BME280;11038;50.940;20.564;2022-07-06T01:20:30;97839.84;;;14.99;100.00
21753;BME280;11038;50.940;20.564;2022-07-06T01:22:02;97845.50;;;15.11;100.00
21753;BME280;11038;50.940;20.564;2022-07-06T01:23:42;97849.63;;;15.07;100.00
21753;BME280;11038;50.940;20.564;2022-07-06T01:25:15;97844.47;;;15.12;100.00
21753;BME280;11038;50.940;20.564;2022-07-06T01:26:47;97852.09;;;15.09;100.00
21753;BME280;11038;50.940;20.564;2022-07-06T01:28:20;97850.88;;;15.11;100.00
21753;BME280;11038;50.940;20.564;2022-07-06T01:29:53;97839.72;;;15.14;100.00
21753;BME280;11038;50.940;20.564;2022-07-06T01:31:26;97847.78;;;15.14;100.00
21753;BME280;11038;50.940;20.564;2022-07-06T01:32:58;97840.97;;;15.19;100.00
21753;BME280;11038;50.940;20.564;2022-07-06T01:34:31;97837.66;;;15.16;100.00
21753;BME280;11038;50.940;20.564;2022-07-06T01:36:03;97848.41;;;15.16;100.00
21753;BME280;11038;50.940;20.564;2022-07-06T01:37:36;97844.88;;;15.09;100.00
21753;BME280;11038;50.940;20.564;2022-07-06T01:39:10;97855.19;;;15.05;100.00
21753;BME280;11038;50.940;20.564;2022-07-06T01:40:42;97848.19;;;15.11;100.00
21753;BME280;11038;50.940;20.564;2022-07-06T01:42:15;97844.03;;;15.09;100.00
21753;BME280;11038;50.940;20.564;2022-07-06T01:43:47;97840.47;;;15.01;100.00
21753;BME280;11038;50.940;20.564;2022-07-06T01:45:19;97849.63;;;15.07;100.00
21753;BME280;11038;50.940;20.564;2022-07-06T01:46:51;97833.63;;;14.99;100.00
21753;BME280;11038;50.940;20.564;2022-07-06T01:48:24;97838.63;;;15.02;100.00
21753;BME280;11038;50.940;20.564;2022-07-06T01:50:00;97844.41;;;15.05;100.00
21753;BME280;11038;50.940;20.564;2022-07-06T01:51:32;97837.34;;;14.98;100.00
21753;BME280;11038;50.940;20.564;2022-07-06T01:53:05;97838.78;;;14.93;100.00
21753;BME280;11038;50.940;20.564;2022-07-06T01:54:37;97843.31;;;14.93;100.00
21753;BME280;11038;50.940;20.564;2022-07-06T01:56:10;97854.06;;;14.93;100.00
21753;BME280;11038;50.940;20.564;2022-07-06T01:57:42;97845.78;;;14.94;100.00
21753;BME280;11038;50.940;20.564;2022-07-06T01:59:15;97848.09;;;14.98;100.00
21753;BME280;11038;50.940;20.564;2022-07-06T02:00:47;97850.41;;;15.01;100.00
21753;BME280;11038;50.940;20.564;2022-07-06T02:02:19;97854.09;;;15.00;100.00
21753;BME280;11038;50.940;20.564;2022-07-06T02:03:52;97853.09;;;15.01;100.00
21753;BME280;11038;50.940;20.564;2022-07-06T02:05:24;97854.56;;;15.03;100.00
21753;BME280;11038;50.940;20.564;2022-07-06T02:06:57;97851.66;;;15.05;100.00
21753;BME280;11038;50.940;20.564;2022-07-06T02:08:29;97848.97;;;15.05;100.00
21753;BME280;11038;50.940;20.564;2022-07-06T02:10:01;97849.16;;;15.03;100.00
21753;BME280;11038;50.940;20.564;2022-07-06T02:11:34;97849.31;;;14.95;100.00
21753;BME280;11038;50.940;20.564;2022-07-06T02:13:06;97848.09;;;14.98;100.00
21753;BME280;11038;50.940;20.564;2022-07-06T02:14:38;97855.38;;;15.04;100.00
21753;BME280;11038;50.940;20.564;2022-07-06T02:16:11;97853.72;;;15.03;100.00
21753;BME280;11038;50.940;20.564;2022-07-06T02:17:43;97853.31;;;15.06;100.00
21753;BME280;11038;50.940;20.564;2022-07-06T02:19:16;97856.00;;;15.06;100.00
21753;BME280;11038;50.940;20.564;2022-07-06T02:20:48;97855.00;;;15.07;100.00
21753;BME280;11038;50.940;20.564;2022-07-06T02:22:20;97855.19;;;15.05;100.00
21753;BME280;11038;50.940;20.564;2022-07-06T02:23:53;97856.00;;;15.06;100.00
21753;BME280;11038;50.940;20.564;2022-07-06T02:25:25;97857.47;;;15.09;100.00
21753;BME280;11038;50.940;20.564;2022-07-06T02:26:57;97856.00;;;14.99;100.00
21753;BME280;11038;50.940;20.564;2022-07-06T02:28:30;97858.72;;;15.06;100.00
21753;BME280;11038;50.940;20.564;2022-07-06T02:30:03;97864.94;;;15.13;100.00
21753;BME280;11038;50.940;20.564;2022-07-06T02:31:35;97865.75;;;15.07;100.00
21753;BME280;11038;50.940;20.564;2022-07-06T02:33:08;97863.31;;;15.12;100.00
21753;BME280;11038;50.940;20.564;2022-07-06T02:34:40;97873.19;;;15.05;100.00
21753;BME280;11038;50.940;20.564;2022-07-06T02:36:13;97874.47;;;15.09;100.00
21753;BME280;11038;50.940;20.564;2022-07-06T02:37:45;97868.44;;;15.07;100.00
21753;BME280;11038;50.940;20.564;2022-07-06T02:39:17;97876.53;;;15.07;100.00
21753;BME280;11038;50.940;20.564;2022-07-06T02:40:49;97868.16;;;14.95;100.00
21753;BME280;11038;50.940;20.564;2022-07-06T02:42:22;97867.69;;;14.91;100.00
21753;BME280;11038;50.940;20.564;2022-07-06T02:43:54;97874.16;;;14.97;100.00
21753;BME280;11038;50.940;20.564;2022-07-06T02:45:26;97877.09;;;15.02;100.00
21753;BME280;11038;50.940;20.564;2022-07-06T02:46:58;97871.09;;;15.00;100.00
21753;BME280;11038;50.940;20.564;2022-07-06T02:48:30;97866.53;;;15.01;100.00
21753;BME280;11038;50.940;20.564;2022-07-06T02:50:03;97878.91;;;14.95;100.00
21753;BME280;11038;50.940;20.564;2022-07-06T02:51:35;97878.53;;;14.98;100.00
21753;BME280;11038;50.940;20.564;2022-07-06T02:53:07;97880.38;;;14.98;100.00
21753;BME280;11038;50.940;20.564;2022-07-06T02:54:40;97875.63;;;15.00;100.00
21753;BME280;11038;50.940;20.564;2022-07-06T02:56:12;97884.75;;;14.99;100.00
21753;BME280;11038;50.940;20.564;2022-07-06T02:57:44;97871.72;;;15.02;100.00
21753;BME280;11038;50.940;20.564;2022-07-06T02:59:16;97871.69;;;14.96;100.00
21753;BME280;11038;50.940;20.564;2022-07-06T03:00:49;97869.00;;;14.96;100.00
21753;BME280;11038;50.940;20.564;2022-07-06T03:02:21;97875.25;;;15.03;100.00
21753;BME280;11038;50.940;20.564;2022-07-06T03:03:53;97870.00;;;14.94;100.00
21753;BME280;11038;50.940;20.564;2022-07-06T03:05:25;97875.97;;;14.90;100.00
21753;BME280;11038;50.940;20.564;2022-07-06T03:06:58;97879.06;;;14.87;100.00
21753;BME280;11038;50.940;20.564;2022-07-06T03:08:30;97877.00;;;14.89;100.00
21753;BME280;11038;50.940;20.564;2022-07-06T03:10:03;97871.06;;;14.93;100.00
21753;BME280;11038;50.940;20.564;2022-07-06T03:11:35;97870.38;;;14.91;100.00
21753;BME280;11038;50.940;20.564;2022-07-06T03:13:08;97874.88;;;14.84;100.00
21753;BME280;11038;50.940;20.564;2022-07-06T03:14:40;97868.34;;;14.93;100.00
21753;BME280;11038;50.940;20.564;2022-07-06T03:16:12;97859.00;;;14.89;100.00
21753;BME280;11038;50.940;20.564;2022-07-06T03:17:44;97856.56;;;14.94;100.00
21753;BME280;11038;50.940;20.564;2022-07-06T03:19:17;97860.69;;;14.90;100.00
21753;BME280;11038;50.940;20.564;2022-07-06T03:20:49;97853.97;;;14.86;100.00
21753;BME280;11038;50.940;20.564;2022-07-06T03:22:22;97848.88;;;14.91;100.00
21753;BME280;11038;50.940;20.564;2022-07-06T03:23:54;97860.28;;;14.93;100.00
21753;BME280;11038;50.940;20.564;2022-07-06T03:25:26;97853.63;;;14.89;100.00
21753;BME280;11038;50.940;20.564;2022-07-06T03:26:58;97864.75;;;14.86;100.00
21753;BME280;11038;50.940;20.564;2022-07-06T03:28:30;97858.81;;;14.91;100.00
21753;BME280;11038;50.940;20.564;2022-07-06T03:30:03;97859.13;;;14.81;100.00
21753;BME280;11038;50.940;20.564;2022-07-06T03:31:36;97866.78;;;14.84;100.00
21753;BME280;11038;50.940;20.564;2022-07-06T03:33:08;97871.53;;;14.82;100.00
21753;BME280;11038;50.940;20.564;2022-07-06T03:34:40;97870.84;;;14.73;100.00
21753;BME280;11038;50.940;20.564;2022-07-06T03:36:13;97858.09;;;14.82;100.00
21753;BME280;11038;50.940;20.564;2022-07-06T03:37:45;97861.81;;;14.81;100.00
21753;BME280;11038;50.940;20.564;2022-07-06T03:39:18;97863.88;;;14.79;100.00
21753;BME280;11038;50.940;20.564;2022-07-06T03:40:50;97863.91;;;14.86;100.00
21753;BME280;11038;50.940;20.564;2022-07-06T03:42:22;97868.47;;;14.85;100.00
21753;BME280;11038;50.940;20.564;2022-07-06T03:43:55;97861.06;;;14.87;100.00
21753;BME280;11038;50.940;20.564;2022-07-06T03:45:27;97864.38;;;14.89;100.00
21753;BME280;11038;50.940;20.564;2022-07-06T03:46:59;97867.44;;;14.86;100.00
21753;BME280;11038;50.940;20.564;2022-07-06T03:48:31;97867.19;;;14.81;100.00
21753;BME280;11038;50.940;20.564;2022-07-06T03:50:04;97864.88;;;14.78;100.00
21753;BME280;11038;50.940;20.564;2022-07-06T03:51:36;97866.31;;;14.74;100.00
21753;BME280;11038;50.940;20.564;2022-07-06T03:53:09;97860.34;;;14.78;100.00
21753;BME280;11038;50.940;20.564;2022-07-06T03:54:42;97864.31;;;14.82;100.00
21753;BME280;11038;50.940;20.564;2022-07-06T03:56:14;97870.25;;;14.78;100.00
21753;BME280;11038;50.940;20.564;2022-07-06T03:58:02;97867.19;;;14.81;100.00
21753;BME280;11038;50.940;20.564;2022-07-06T03:59:37;97870.06;;;14.79;100.00
21753;BME280;11038;50.940;20.564;2022-07-06T04:01:09;97866.78;;;14.84;100.00
21753;BME280;11038;50.940;20.564;2022-07-06T04:02:42;97868.84;;;14.82;100.00
21753;BME280;11038;50.940;20.564;2022-07-06T04:04:14;97872.66;;;14.88;100.00
21753;BME280;11038;50.940;20.564;2022-07-06T04:05:46;97878.47;;;14.91;100.00
21753;BME280;11038;50.940;20.564;2022-07-06T04:07:18;97870.91;;;14.80;100.00
21753;BME280;11038;50.940;20.564;2022-07-06T04:08:52;97878.19;;;14.86;100.00
21753;BME280;11038;50.940;20.564;2022-07-06T04:10:24;97876.81;;;14.90;100.00
21753;BME280;11038;50.940;20.564;2022-07-06T04:11:56;97870.13;;;14.86;100.00
21753;BME280;11038;50.940;20.564;2022-07-06T04:13:28;97877.19;;;14.87;100.00
21753;BME280;11038;50.940;20.564;2022-07-06T04:15:01;97868.13;;;14.88;100.00
21753;BME280;11038;50.940;20.564;2022-07-06T04:16:33;97880.03;;;14.86;100.00
21753;BME280;11038;50.940;20.564;2022-07-06T04:18:05;97881.47;;;14.81;100.00
21753;BME280;11038;50.940;20.564;2022-07-06T04:19:38;97883.06;;;14.76;100.00
21753;BME280;11038;50.940;20.564;2022-07-06T04:21:10;97882.31;;;14.82;100.00
21753;BME280;11038;50.940;20.564;2022-07-06T04:22:42;97875.88;;;14.83;100.00
21753;BME280;11038;50.940;20.564;2022-07-06T04:24:14;97880.75;;;14.94;100.00
21753;BME280;11038;50.940;20.564;2022-07-06T04:25:47;97873.50;;;14.88;100.00
21753;BME280;11038;50.940;20.564;2022-07-06T04:27:19;97883.03;;;14.91;100.00
21753;BME280;11038;50.940;20.564;2022-07-06T04:28:51;97877.69;;;14.98;100.00
21753;BME280;11038;50.940;20.564;2022-07-06T04:30:23;97876.81;;;14.90;100.00
21753;BME280;11038;50.940;20.564;2022-07-06T04:31:55;97875.13;;;14.89;100.00
21753;BME280;11038;50.940;20.564;2022-07-06T04:33:28;97872.13;;;14.99;100.00
21753;BME280;11038;50.940;20.564;2022-07-06T04:35:01;97877.69;;;14.98;100.00
21753;BME280;11038;50.940;20.564;2022-07-06T04:36:34;97873.38;;;15.03;100.00
21753;BME280;11038;50.940;20.564;2022-07-06T04:38:06;97883.94;;;15.05;100.00
21753;BME280;11038;50.940;20.564;2022-07-06T04:39:38;97880.00;;;15.01;100.00
21753;BME280;11038;50.940;20.564;2022-07-06T04:41:10;97883.31;;;15.03;100.00
21753;BME280;11038;50.940;20.564;2022-07-06T04:42:43;97882.16;;;15.12;100.00
21753;BME280;11038;50.940;20.564;2022-07-06T04:44:15;97892.66;;;15.07;100.00
21753;BME280;11038;50.940;20.564;2022-07-06T04:45:47;97891.06;;;15.13;100.00
21753;BME280;11038;50.940;20.564;2022-07-06T04:47:20;97898.91;;;15.14;100.00
21753;BME280;11038;50.940;20.564;2022-07-06T04:48:52;97894.38;;;15.15;100.00
21753;BME280;11038;50.940;20.564;2022-07-06T04:50:25;97895.78;;;15.11;100.00
21753;BME280;11038;50.940;20.564;2022-07-06T04:51:58;97901.41;;;15.16;100.00
21753;BME280;11038;50.940;20.564;2022-07-06T04:53:30;97891.28;;;15.18;100.00
21753;BME280;11038;50.940;20.564;2022-07-06T04:55:03;97895.69;;;15.26;100.00
21753;BME280;11038;50.940;20.564;2022-07-06T04:56:37;97890.69;;;15.23;100.00
21753;BME280;11038;50.940;20.564;2022-07-06T04:58:09;97896.34;;;15.35;100.00
21753;BME280;11038;50.940;20.564;2022-07-06T04:59:42;97897.47;;;15.47;100.00
21753;BME280;11038;50.940;20.564;2022-07-06T05:01:14;97899.16;;;15.55;100.00
21753;BME280;11038;50.940;20.564;2022-07-06T05:02:46;97903.28;;;15.51;100.00
21753;BME280;11038;50.940;20.564;2022-07-06T05:04:19;97902.00;;;15.47;100.00
21753;BME280;11038;50.940;20.564;2022-07-06T05:05:51;97917.00;;;15.63;100.00
21753;BME280;11038;50.940;20.564;2022-07-06T05:07:25;97916.66;;;15.73;100.00
21753;BME280;11038;50.940;20.564;2022-07-06T05:09:01;97917.13;;;15.83;100.00
21753;BME280;11038;50.940;20.564;2022-07-06T05:10:34;97921.44;;;15.78;100.00
21753;BME280;11038;50.940;20.564;2022-07-06T05:12:06;97929.13;;;15.81;100.00
21753;BME280;11038;50.940;20.564;2022-07-06T05:13:39;97931.63;;;15.82;100.00
21753;BME280;11038;50.940;20.564;2022-07-06T05:15:11;97934.97;;;15.91;100.00
21753;BME280;11038;50.940;20.564;2022-07-06T05:16:44;97945.34;;;15.94;100.00
21753;BME280;11038;50.940;20.564;2022-07-06T05:18:16;97939.97;;;16.01;100.00
21753;BME280;11038;50.940;20.564;2022-07-06T05:19:49;97949.94;;;16.01;100.00
21753;BME280;11038;50.940;20.564;2022-07-06T05:21:21;97942.88;;;16.00;100.00
21753;BME280;11038;50.940;20.564;2022-07-06T05:22:54;97945.38;;;16.01;100.00
21753;BME280;11038;50.940;20.564;2022-07-06T05:24:26;97942.06;;;15.99;100.00
21753;BME280;11038;50.940;20.564;2022-07-06T05:25:58;97943.13;;;16.05;100.00
21753;BME280;11038;50.940;20.564;2022-07-06T05:27:31;97945.44;;;16.08;100.00
21753;BME280;11038;50.940;20.564;2022-07-06T05:29:03;97940.50;;;16.19;100.00
21753;BME280;11038;50.940;20.564;2022-07-06T05:30:36;97941.56;;;16.24;100.00
21753;BME280;11038;50.940;20.564;2022-07-06T05:32:08;97945.09;;;16.25;100.00
21753;BME280;11038;50.940;20.564;2022-07-06T05:33:40;97940.31;;;16.27;100.00
21753;BME280;11038;50.940;20.564;2022-07-06T05:35:13;97944.06;;;16.33;100.00
21753;BME280;11038;50.940;20.564;2022-07-06T05:37:05;97948.22;;;16.35;100.00
21753;BME280;11038;50.940;20.564;2022-07-06T05:38:38;97940.56;;;16.53;100.00
21753;BME280;11038;50.940;20.564;2022-07-06T05:40:11;97933.94;;;16.48;100.00
21753;BME280;11038;50.940;20.564;2022-07-06T05:41:43;97936.81;;;16.40;100.00
21753;BME280;11038;50.940;20.564;2022-07-06T05:43:16;97937.88;;;16.53;100.00
21753;BME280;11038;50.940;20.564;2022-07-06T05:44:48;97943.28;;;16.53;100.00
21753;BME280;11038;50.940;20.564;2022-07-06T05:46:20;97941.66;;;16.79;100.00
21753;BME280;11038;50.940;20.564;2022-07-06T05:47:53;97938.38;;;16.90;100.00
21753;BME280;11038;50.940;20.564;2022-07-06T05:49:44;97934.41;;;16.79;100.00
21753;BME280;11038;50.940;20.564;2022-07-06T05:51:35;97947.28;;;16.84;100.00
21753;BME280;11038;50.940;20.564;2022-07-06T05:53:08;97936.88;;;16.81;100.00
21753;BME280;11038;50.940;20.564;2022-07-06T05:54:50;97942.28;;;17.08;100.00
21753;BME280;11038;50.940;20.564;2022-07-06T05:56:23;97947.28;;;17.18;100.00
21753;BME280;11038;50.940;20.564;2022-07-06T05:57:55;97944.00;;;17.23;100.00
21753;BME280;11038;50.940;20.564;2022-07-06T05:59:28;97939.41;;;17.30;100.00
21753;BME280;11038;50.940;20.564;2022-07-06T06:01:00;97943.53;;;17.46;100.00
21753;BME280;11038;50.940;20.564;2022-07-06T06:02:39;97954.75;;;17.43;99.05
21753;BME280;11038;50.940;20.564;2022-07-06T06:04:12;97950.59;;;17.41;99.27
21753;BME280;11038;50.940;20.564;2022-07-06T06:05:44;97953.47;;;17.59;98.72
21753;BME280;11038;50.940;20.564;2022-07-06T06:07:16;97943.91;;;17.64;97.85
21753;BME280;11038;50.940;20.564;2022-07-06T06:08:48;97947.84;;;17.68;96.93
21753;BME280;11038;50.940;20.564;2022-07-06T06:10:21;97943.75;;;17.45;96.26
21753;BME280;11038;50.940;20.564;2022-07-06T06:11:54;97946.59;;;17.70;96.72
21753;BME280;11038;50.940;20.564;2022-07-06T06:13:26;97952.56;;;17.93;96.78
21753;BME280;11038;50.940;20.564;2022-07-06T06:14:58;97946.69;;;18.10;94.44
21753;BME280;11038;50.940;20.564;2022-07-06T06:16:31;97943.72;;;18.64;94.31
21753;BME280;11038;50.940;20.564;2022-07-06T06:18:03;97939.16;;;18.90;93.71
21753;BME280;11038;50.940;20.564;2022-07-06T06:19:36;97936.06;;;19.12;89.92
21753;BME280;11038;50.940;20.564;2022-07-06T06:21:09;97937.75;;;19.58;90.63
21753;BME280;11038;50.940;20.564;2022-07-06T06:22:52;97938.00;;;19.94;90.23
21753;BME280;11038;50.940;20.564;2022-07-06T06:24:25;97937.56;;;20.16;89.11
21753;BME280;11038;50.940;20.564;2022-07-06T06:26:00;97939.78;;;20.19;85.22
21753;BME280;11038;50.940;20.564;2022-07-06T06:27:32;97947.66;;;20.40;82.67
21753;BME280;11038;50.940;20.564;2022-07-06T06:29:04;97943.00;;;21.02;82.34
21753;BME280;11038;50.940;20.564;2022-07-06T06:30:38;97939.38;;;21.44;81.25
21753;BME280;11038;50.940;20.564;2022-07-06T06:32:11;97944.22;;;21.42;80.21
21753;BME280;11038;50.940;20.564;2022-07-06T06:33:44;97957.81;;;21.66;78.77
21753;BME280;11038;50.940;20.564;2022-07-06T06:35:16;97956.00;;;21.84;74.40
21753;BME280;11038;50.940;20.564;2022-07-06T06:36:49;97963.34;;;21.72;75.50
21753;BME280;11038;50.940;20.564;2022-07-06T06:38:22;97947.16;;;21.65;74.32
21753;BME280;11038;50.940;20.564;2022-07-06T06:40:00;97956.38;;;21.64;73.54
21753;BME280;11038;50.940;20.564;2022-07-06T06:41:32;97953.78;;;21.69;74.12
21753;BME280;11038;50.940;20.564;2022-07-06T06:43:05;97955.50;;;21.87;74.71
21753;BME280;11038;50.940;20.564;2022-07-06T06:44:37;97950.81;;;21.83;73.82
21753;BME280;11038;50.940;20.564;2022-07-06T06:46:09;97956.63;;;21.38;73.24
21753;BME280;11038;50.940;20.564;2022-07-06T06:47:41;97952.94;;;21.93;73.76
21753;BME280;11038;50.940;20.564;2022-07-06T06:49:14;97951.75;;;21.64;73.07
21753;BME280;11038;50.940;20.564;2022-07-06T06:50:46;97950.56;;;21.96;73.77
21753;BME280;11038;50.940;20.564;2022-07-06T06:52:18;97956.72;;;22.33;72.16
21753;BME280;11038;50.940;20.564;2022-07-06T06:54:10;97956.94;;;22.73;69.22
21753;BME280;11038;50.940;20.564;2022-07-06T06:55:43;97955.31;;;23.06;68.86
21753;BME280;11038;50.940;20.564;2022-07-06T06:57:16;97964.88;;;23.09;66.25
21753;BME280;11038;50.940;20.564;2022-07-06T06:58:48;97950.84;;;23.00;67.45
21753;BME280;11038;50.940;20.564;2022-07-06T07:00:40;97955.63;;;22.93;66.60
21753;BME280;11038;50.940;20.564;2022-07-06T07:02:12;97957.03;;;22.78;66.67
21753;BME280;11038;50.940;20.564;2022-07-06T07:03:45;97958.06;;;22.77;66.88
21753;BME280;11038;50.940;20.564;2022-07-06T07:05:17;97963.22;;;22.91;66.37
21753;BME280;11038;50.940;20.564;2022-07-06T07:06:49;97962.81;;;22.99;65.93
21753;BME280;11038;50.940;20.564;2022-07-06T07:08:22;97975.94;;;23.02;65.48
21753;BME280;11038;50.940;20.564;2022-07-06T07:09:54;97975.09;;;23.02;65.76
21753;BME280;11038;50.940;20.564;2022-07-06T07:11:26;97969.09;;;22.99;65.66
21753;BME280;11038;50.940;20.564;2022-07-06T07:12:59;97967.81;;;22.90;65.36
21753;BME280;11038;50.940;20.564;2022-07-06T07:14:32;97977.91;;;22.89;65.50
21753;BME280;11038;50.940;20.564;2022-07-06T07:16:05;97977.97;;;22.77;65.77
21753;BME280;11038;50.940;20.564;2022-07-06T07:17:38;97974.47;;;23.11;66.06
21753;BME280;11038;50.940;20.564;2022-07-06T07:19:10;97973.78;;;22.87;66.46
21753;BME280;11038;50.940;20.564;2022-07-06T07:20:43;97970.88;;;22.94;66.13
21753;BME280;11038;50.940;20.564;2022-07-06T07:22:15;97971.59;;;22.72;65.12
21753;BME280;11038;50.940;20.564;2022-07-06T07:23:47;97973.06;;;22.62;64.70
21753;BME280;11038;50.940;20.564;2022-07-06T07:25:22;97971.88;;;22.58;65.59
21753;BME280;11038;50.940;20.564;2022-07-06T07:26:54;97970.31;;;22.92;66.64
21753;BME280;11038;50.940;20.564;2022-07-06T07:28:27;97965.88;;;23.03;65.88
21753;BME280;11038;50.940;20.564;2022-07-06T07:29:59;97971.81;;;22.41;65.56
21753;BME280;11038;50.940;20.564;2022-07-06T07:31:32;97973.75;;;22.58;67.19
21753;BME280;11038;50.940;20.564;2022-07-06T07:33:05;97974.44;;;22.94;66.71
21753;BME280;11038;50.940;20.564;2022-07-06T07:34:37;97977.22;;;22.82;66.35
21753;BME280;11038;50.940;20.564;2022-07-06T07:36:09;97982.19;;;22.85;66.13
21753;BME280;11038;50.940;20.564;2022-07-06T07:37:41;97981.81;;;23.28;67.49
21753;BME280;11038;50.940;20.564;2022-07-06T07:39:14;97985.09;;;23.65;64.83
21753;BME280;11038;50.940;20.564;2022-07-06T07:40:46;97979.31;;;23.44;64.62
21753;BME280;11038;50.940;20.564;2022-07-06T07:42:18;97973.88;;;23.44;62.06
21753;BME280;11038;50.940;20.564;2022-07-06T07:43:51;97991.63;;;23.47;63.94
21753;BME280;11038;50.940;20.564;2022-07-06T07:45:23;97983.09;;;24.00;63.03
21753;BME280;11038;50.940;20.564;2022-07-06T07:46:56;97980.63;;;24.43;62.32
21753;BME280;11038;50.940;20.564;2022-07-06T07:48:28;97995.75;;;24.51;63.01
21753;BME280;11038;50.940;20.564;2022-07-06T07:50:00;97992.81;;;24.86;62.68
21753;BME280;11038;50.940;20.564;2022-07-06T07:51:33;97994.94;;;24.79;60.75
21753;BME280;11038;50.940;20.564;2022-07-06T07:53:05;97989.63;;;24.66;59.50
21753;BME280;11038;50.940;20.564;2022-07-06T07:54:37;97991.75;;;24.59;59.16
21753;BME280;11038;50.940;20.564;2022-07-06T07:56:17;97984.88;;;24.84;57.81
21753;BME280;11038;50.940;20.564;2022-07-06T07:57:50;97985.28;;;24.98;57.43
21753;BME280;11038;50.940;20.564;2022-07-06T07:59:22;97983.91;;;25.29;57.32
21753;BME280;11038;50.940;20.564;2022-07-06T08:00:54;97981.00;;;25.41;55.34
21753;BME280;11038;50.940;20.564;2022-07-06T08:02:26;97979.16;;;25.52;55.35